createdAt,value
2022-12-22T00:02:28.402Z,25.43
2022-12-22T00:05:43.170Z,27.50
2022-12-22T00:08:48.577Z,30.87
2022-12-22T00:11:54.344Z,29.27
2022-12-22T00:15:01.327Z,27.30
2022-12-22T00:18:06.984Z,25.43
2022-12-22T00:21:12.679Z,24.37
2022-12-22T00:24:18.437Z,22.70
2022-12-22T00:27:23.937Z,22.23
2022-12-22T00:30:33.300Z,20.87
2022-12-22T00:33:39.310Z,19.40
2022-12-22T00:36:44.902Z,19.87
2022-12-22T00:39:50.486Z,15.80
2022-12-22T00:42:56.189Z,17.80
2022-12-22T00:46:02.048Z,16.83
2022-12-22T00:49:08.436Z,15.10
2022-12-22T00:52:13.878Z,14.43
2022-12-22T00:55:20.064Z,14.47
2022-12-22T00:58:33.014Z,17.57
2022-12-22T01:01:38.671Z,14.33
2022-12-22T01:04:44.529Z,13.77
2022-12-22T01:07:49.882Z,13.53
2022-12-22T01:10:55.534Z,14.27
2022-12-22T01:14:01.199Z,15.80
2022-12-22T01:17:06.791Z,14.47
2022-12-22T01:20:12.265Z,16.00
2022-12-22T01:23:17.542Z,15.77
2022-12-22T01:26:27.695Z,15.17
2022-12-22T01:29:33.625Z,16.07
2022-12-22T01:32:39.368Z,15.77
2022-12-22T01:35:49.638Z,14.73
2022-12-22T01:38:54.878Z,13.73
2022-12-22T01:42:00.640Z,14.67
2022-12-22T01:45:06.315Z,14.20
2022-12-22T01:48:11.845Z,14.20
2022-12-22T01:51:21.589Z,13.57
2022-12-22T01:54:28.768Z,13.27
2022-12-22T01:57:34.333Z,13.93
2022-12-22T02:00:39.870Z,14.27
2022-12-22T02:03:45.532Z,14.57
2022-12-22T02:07:00.029Z,13.43
2022-12-22T02:10:16.375Z,13.17
2022-12-22T02:14:07.455Z,12.30
2022-12-22T02:17:47.351Z,12.23
2022-12-22T02:20:54.921Z,11.23
2022-12-22T02:24:09.329Z,10.80
2022-12-22T02:27:19.551Z,11.37
2022-12-22T02:30:27.510Z,11.07
2022-12-22T02:33:32.856Z,11.10
2022-12-22T02:36:53.045Z,11.03
2022-12-22T02:40:12.327Z,10.63
2022-12-22T02:43:56.892Z,11.77
2022-12-22T02:47:16.534Z,10.90
2022-12-22T02:50:41.849Z,10.57
2022-12-22T02:53:48.911Z,9.33
2022-12-22T02:56:54.369Z,8.20
2022-12-22T02:59:59.948Z,9.80
2022-12-22T03:03:05.814Z,8.47
2022-12-22T03:06:11.697Z,9.47
2022-12-22T03:09:17.419Z,10.47
2022-12-22T03:12:23.173Z,8.97
2022-12-22T03:15:29.038Z,9.23
2022-12-22T03:18:34.662Z,9.63
2022-12-22T03:21:40.296Z,8.90
2022-12-22T03:24:45.854Z,7.67
2022-12-22T03:27:32.819Z,8.77
2022-12-22T03:30:20.151Z,9.30
2022-12-22T03:33:07.303Z,9.20
2022-12-22T03:35:54.227Z,9.03
2022-12-22T03:38:41.290Z,7.90
2022-12-22T03:41:46.752Z,6.67
2022-12-22T03:44:52.457Z,5.90
2022-12-22T03:47:39.503Z,6.40
2022-12-22T03:50:26.447Z,7.17
2022-12-22T03:53:13.348Z,6.67
2022-12-22T03:56:07.321Z,6.20
2022-12-22T03:58:54.931Z,5.80
2022-12-22T04:01:45.031Z,5.33
2022-12-22T04:04:32.419Z,5.77
2022-12-22T04:07:19.467Z,4.53
2022-12-22T04:10:26.094Z,4.83
2022-12-22T04:13:13.077Z,4.80
2022-12-22T04:16:00.052Z,4.77
2022-12-22T04:18:47.017Z,4.50
2022-12-22T04:21:34.203Z,3.17
2022-12-22T04:24:22.328Z,3.50
2022-12-22T04:27:09.390Z,2.87
2022-12-22T04:29:56.336Z,2.40
2022-12-22T04:32:43.344Z,2.17
2022-12-22T04:35:30.292Z,1.53
2022-12-22T04:38:17.436Z,1.23
2022-12-22T04:41:04.608Z,1.37
2022-12-22T04:43:51.521Z,1.13
2022-12-22T04:46:38.507Z,1.23
2022-12-22T04:49:25.448Z,1.27
2022-12-22T04:52:12.898Z,0.80
2022-12-22T04:54:59.896Z,1.00
2022-12-22T04:57:46.847Z,0.90
2022-12-22T05:00:33.776Z,0.90
2022-12-22T05:03:21.579Z,1.03
2022-12-22T05:06:09.106Z,0.70
2022-12-22T05:08:56.347Z,1.30
2022-12-22T05:11:43.428Z,0.73
2022-12-22T05:14:30.330Z,0.63
2022-12-22T05:17:17.493Z,3.50
2022-12-22T05:20:04.705Z,0.83
2022-12-22T05:22:51.715Z,0.80
2022-12-22T05:25:38.640Z,0.90
2022-12-22T05:28:25.589Z,0.83
2022-12-22T05:31:18.661Z,1.10
2022-12-22T05:34:05.642Z,1.17
2022-12-22T05:36:52.645Z,1.10
2022-12-22T05:39:39.575Z,1.00
2022-12-22T05:42:36.067Z,0.90
2022-12-22T05:45:23.399Z,1.10
2022-12-22T05:48:10.300Z,0.70
2022-12-22T05:50:57.377Z,1.00
2022-12-22T05:53:44.285Z,1.03
2022-12-22T05:56:31.274Z,1.40
2022-12-22T05:59:18.173Z,1.10
2022-12-22T06:02:05.204Z,0.87
2022-12-22T06:04:52.210Z,1.00
2022-12-22T06:07:39.569Z,1.00
2022-12-22T06:10:26.562Z,1.27
2022-12-22T06:13:13.529Z,1.00
2022-12-22T06:16:00.611Z,1.00
2022-12-22T06:18:47.622Z,1.33
2022-12-22T06:21:34.539Z,1.20
2022-12-22T06:24:21.507Z,1.10
2022-12-22T06:27:08.871Z,1.00
2022-12-22T06:29:55.858Z,0.97
2022-12-22T06:32:42.945Z,0.93
2022-12-22T06:35:29.888Z,1.00
2022-12-22T06:38:16.824Z,1.00
2022-12-22T06:41:04.077Z,2.30
2022-12-22T06:43:51.071Z,1.03
2022-12-22T06:46:38.089Z,1.23
2022-12-22T06:49:25.102Z,1.00
2022-12-22T06:52:12.166Z,1.30
2022-12-22T06:54:59.158Z,1.20
2022-12-22T06:57:46.143Z,1.40
2022-12-22T07:00:33.846Z,1.17
2022-12-22T07:03:20.980Z,0.80
2022-12-22T07:06:08.212Z,1.10
2022-12-22T07:08:55.217Z,1.07
2022-12-22T07:11:42.199Z,1.20
2022-12-22T07:14:29.240Z,1.33
2022-12-22T07:17:16.289Z,0.93
2022-12-22T07:20:03.589Z,0.80
2022-12-22T07:22:50.628Z,0.83
2022-12-22T07:25:37.678Z,0.90
2022-12-22T07:28:25.240Z,0.90
2022-12-22T07:31:18.712Z,0.83
2022-12-22T07:34:05.773Z,0.97
2022-12-22T07:36:52.806Z,0.93
2022-12-22T07:39:39.868Z,0.70
2022-12-22T07:42:45.162Z,1.30
2022-12-22T07:45:34.001Z,0.90
2022-12-22T07:48:39.642Z,1.57
2022-12-22T07:51:26.664Z,0.87
2022-12-22T07:54:15.041Z,0.70
2022-12-22T07:57:02.108Z,0.87
2022-12-22T07:59:49.243Z,1.50
2022-12-22T08:02:39.024Z,0.80
2022-12-22T08:05:26.531Z,0.90
2022-12-22T08:08:13.576Z,1.37
2022-12-22T08:11:04.559Z,0.87
2022-12-22T08:13:54.581Z,2.67
2022-12-22T08:16:46.235Z,1.03
2022-12-22T08:19:34.127Z,0.80
2022-12-22T08:22:23.987Z,0.77
2022-12-22T08:25:11.035Z,1.27
2022-12-22T08:27:58.846Z,0.77
2022-12-22T08:30:46.476Z,1.27
2022-12-22T08:33:33.573Z,1.50
2022-12-22T08:36:20.655Z,2.33
2022-12-22T08:39:08.070Z,2.93
2022-12-22T08:41:55.129Z,0.97
2022-12-22T08:44:42.194Z,0.90
2022-12-22T08:47:29.451Z,0.70
2022-12-22T08:50:16.850Z,0.70
2022-12-22T08:53:05.466Z,1.20
2022-12-22T08:55:56.199Z,0.80
2022-12-22T08:58:43.148Z,0.90
2022-12-22T09:01:30.200Z,0.87
2022-12-22T09:04:19.689Z,0.90
2022-12-22T09:07:06.695Z,0.60
2022-12-22T09:09:54.739Z,0.70
2022-12-22T09:12:41.777Z,0.60
2022-12-22T09:15:28.889Z,1.47
2022-12-22T09:18:16.013Z,1.53
2022-12-22T09:21:02.973Z,2.43
2022-12-22T09:23:50.432Z,0.90
2022-12-22T09:26:37.676Z,0.93
2022-12-22T09:29:24.701Z,1.27
2022-12-22T09:32:11.720Z,1.67
2022-12-22T09:34:58.717Z,0.80
2022-12-22T09:37:45.661Z,0.77
2022-12-22T09:40:33.185Z,1.37
2022-12-22T09:43:26.021Z,2.03
2022-12-22T09:46:25.711Z,1.03
2022-12-22T09:49:15.673Z,1.10
2022-12-22T09:52:04.397Z,2.40
2022-12-22T09:54:51.637Z,2.83
2022-12-22T09:57:38.631Z,2.27
2022-12-22T10:00:27.218Z,2.67
2022-12-22T10:03:37.236Z,1.07
2022-12-22T10:06:34.803Z,4.17
2022-12-22T10:09:49.075Z,1.67
2022-12-22T10:12:31.753Z,2.93
2022-12-22T10:15:21.953Z,3.13
2022-12-22T10:18:15.320Z,2.27
2022-12-22T10:21:12.646Z,3.13
2022-12-22T10:23:59.778Z,1.37
2022-12-22T10:26:46.880Z,1.57
2022-12-22T10:29:34.359Z,2.70
2022-12-22T10:32:22.747Z,2.60
2022-12-22T10:35:09.782Z,1.43
2022-12-22T10:37:56.767Z,2.00
2022-12-22T10:40:46.052Z,3.33
2022-12-22T10:43:37.532Z,1.20
2022-12-22T10:46:36.538Z,1.90
2022-12-22T10:49:45.830Z,2.40
2022-12-22T10:52:33.199Z,1.43
2022-12-22T10:55:29.542Z,1.80
2022-12-22T10:58:19.167Z,1.40
2022-12-22T11:01:06.205Z,1.90
2022-12-22T11:03:53.617Z,0.87
2022-12-22T11:06:43.199Z,0.97
2022-12-22T11:09:35.132Z,1.83
2022-12-22T11:12:28.400Z,2.60
2022-12-22T11:15:25.226Z,1.93
2022-12-22T11:18:25.562Z,2.43
2022-12-22T11:21:43.333Z,0.70
2022-12-22T11:24:50.927Z,1.93
2022-12-22T11:28:11.983Z,0.93
2022-12-22T11:31:20.467Z,2.37
2022-12-22T11:34:28.515Z,2.03
2022-12-22T11:37:41.745Z,1.77
2022-12-22T11:40:38.876Z,1.70
2022-12-22T11:43:29.359Z,2.73
2022-12-22T11:46:41.304Z,1.00
2022-12-22T11:49:37.394Z,2.23
2022-12-22T11:52:48.899Z,1.07
2022-12-22T11:55:40.439Z,1.00
2022-12-22T11:58:48.594Z,1.47
2022-12-22T12:01:58.994Z,3.83
2022-12-22T12:05:15.421Z,1.37
2022-12-22T12:08:21.449Z,1.20
2022-12-22T12:11:18.423Z,1.13
2022-12-22T12:14:26.748Z,0.97
2022-12-22T12:17:19.754Z,0.93
2022-12-22T12:20:32.688Z,2.03
2022-12-22T12:23:59.475Z,0.90
2022-12-22T12:27:18.728Z,0.83
2022-12-22T12:33:49.558Z,1.80
2022-12-22T12:36:46.532Z,2.77
2022-12-22T12:39:41.135Z,2.47
2022-12-22T12:42:37.449Z,0.83
2022-12-22T12:45:48.922Z,0.50
2022-12-22T12:48:37.544Z,0.73
2022-12-22T12:51:49.426Z,2.70
2022-12-22T12:54:47.821Z,2.43
2022-12-22T12:57:49.165Z,1.60
2022-12-22T13:00:37.759Z,2.07
2022-12-22T13:04:01.108Z,1.17
2022-12-22T13:06:51.328Z,2.27
2022-12-22T13:10:08.659Z,1.70
2022-12-22T13:12:58.023Z,1.33
2022-12-22T13:15:45.307Z,2.10
2022-12-22T13:18:35.526Z,0.90
2022-12-22T13:21:52.833Z,1.57
2022-12-22T13:24:47.203Z,1.10
2022-12-22T13:27:36.604Z,1.53
2022-12-22T13:30:24.390Z,2.03
2022-12-22T13:33:15.874Z,2.23
2022-12-22T13:36:03.704Z,1.50
2022-12-22T13:39:06.269Z,1.23
2022-12-22T13:41:55.170Z,2.20
2022-12-22T13:44:42.557Z,1.50
2022-12-22T13:47:29.534Z,1.73
2022-12-22T13:50:23.158Z,3.10
2022-12-22T13:53:34.443Z,2.73
2022-12-22T13:56:34.306Z,2.90
2022-12-22T13:59:28.656Z,3.00
2022-12-22T14:02:19.479Z,2.30
2022-12-22T14:05:09.902Z,3.27
2022-12-22T14:08:04.835Z,2.73
2022-12-22T14:10:54.344Z,2.23
2022-12-22T14:13:42.940Z,2.43
2022-12-22T14:16:30.024Z,1.37
2022-12-22T14:19:18.327Z,3.47
2022-12-22T14:22:15.173Z,4.43
2022-12-22T14:25:21.789Z,2.97
2022-12-22T14:28:20.317Z,3.00
2022-12-22T14:31:07.747Z,2.43
2022-12-22T14:33:57.226Z,2.43
2022-12-22T14:36:53.894Z,3.73
2022-12-22T14:39:41.163Z,2.83
2022-12-22T14:42:28.399Z,5.43
2022-12-22T14:45:16.516Z,3.47
2022-12-22T14:48:09.764Z,4.17
2022-12-22T14:50:56.992Z,1.77
2022-12-22T14:53:49.967Z,3.53
2022-12-22T14:56:48.021Z,1.83
2022-12-22T14:59:35.056Z,2.90
2022-12-22T15:02:33.489Z,3.40
2022-12-22T15:05:23.888Z,2.63
2022-12-22T15:08:39.636Z,2.37
2022-12-22T15:11:26.694Z,1.83
2022-12-22T15:14:17.425Z,4.27
2022-12-22T15:17:06.786Z,2.93
2022-12-22T15:20:00.155Z,2.10
2022-12-22T15:22:47.861Z,3.83
2022-12-22T15:25:34.837Z,6.67
2022-12-22T15:28:21.808Z,4.13
2022-12-22T15:31:16.724Z,2.70
2022-12-22T15:34:10.339Z,1.73
2022-12-22T15:36:57.667Z,4.83
2022-12-22T15:39:44.642Z,4.70
2022-12-22T15:42:31.638Z,3.97
2022-12-22T15:45:21.274Z,2.67
2022-12-22T15:48:13.347Z,2.60
2022-12-22T15:51:03.659Z,2.43
2022-12-22T15:53:51.191Z,1.70
2022-12-22T15:56:38.502Z,4.47
2022-12-22T15:59:27.923Z,3.03
2022-12-22T16:02:15.059Z,4.07
2022-12-22T16:05:02.295Z,2.07
2022-12-22T16:07:49.396Z,2.07
2022-12-22T16:10:36.497Z,3.40
2022-12-22T16:13:29.715Z,3.73
2022-12-22T16:16:17.308Z,2.67
2022-12-22T16:19:04.381Z,3.63
2022-12-22T16:21:53.529Z,2.40
2022-12-22T16:24:44.063Z,3.33
2022-12-22T16:27:31.514Z,3.17
2022-12-22T16:30:24.083Z,3.70
2022-12-22T16:33:12.697Z,2.93
2022-12-22T16:35:59.721Z,2.63
2022-12-22T16:38:47.588Z,2.43
2022-12-22T16:41:35.062Z,4.27
2022-12-22T16:47:32.721Z,2.50
2022-12-22T16:50:22.598Z,4.53
2022-12-22T16:53:11.212Z,1.97
2022-12-22T16:55:59.867Z,5.50
2022-12-22T16:58:47.791Z,4.33
2022-12-22T17:02:00.937Z,5.27
2022-12-22T17:04:48.531Z,3.47
2022-12-22T17:07:35.615Z,3.17
2022-12-22T17:10:23.515Z,3.30
2022-12-22T17:13:11.489Z,2.20
2022-12-22T17:15:59.539Z,3.23
2022-12-22T17:18:47.031Z,2.87
2022-12-22T17:21:34.250Z,3.97
2022-12-22T17:24:27.809Z,3.87
2022-12-22T17:27:17.153Z,4.80
2022-12-22T17:30:04.609Z,3.67
2022-12-22T17:32:54.647Z,3.90
2022-12-22T17:35:42.581Z,3.87
2022-12-22T17:38:29.864Z,3.67
2022-12-22T17:41:17.594Z,2.57
2022-12-22T17:44:04.863Z,3.47
2022-12-22T17:46:51.940Z,5.40
2022-12-22T17:49:38.971Z,3.80
2022-12-22T17:52:27.986Z,6.87
2022-12-22T17:55:49.905Z,5.03
2022-12-22T17:58:28.315Z,18.33
2022-12-22T18:01:23.132Z,18.63
2022-12-22T18:04:10.191Z,10.03
2022-12-22T18:06:58.583Z,8.67
2022-12-22T18:09:46.751Z,8.47
2022-12-22T18:12:33.762Z,5.67
2022-12-22T18:15:21.871Z,4.43
2022-12-22T18:18:13.875Z,2.63
2022-12-22T18:21:07.606Z,5.07
2022-12-22T18:23:55.327Z,4.53
2022-12-22T18:26:42.894Z,5.30
2022-12-22T18:29:32.937Z,3.97
2022-12-22T18:32:27.031Z,3.53
2022-12-22T18:35:15.660Z,5.30
2022-12-22T18:38:03.077Z,3.33
2022-12-22T18:40:50.287Z,4.07
2022-12-22T18:43:37.271Z,3.97
2022-12-22T18:46:24.558Z,5.80
2022-12-22T18:49:11.663Z,6.50
2022-12-22T18:51:58.620Z,7.00
2022-12-22T18:54:46.245Z,7.57
2022-12-22T18:57:33.158Z,8.03
2022-12-22T19:00:23.217Z,5.23
2022-12-22T19:03:22.007Z,3.17
2022-12-22T19:06:10.345Z,3.00
2022-12-22T19:08:57.281Z,2.10
2022-12-22T19:11:44.508Z,1.97
2022-12-22T19:14:32.505Z,2.70
2022-12-22T19:17:24.029Z,5.87
2022-12-22T19:20:19.373Z,7.67
2022-12-22T19:23:06.469Z,10.83
2022-12-22T19:26:00.988Z,12.50
2022-12-22T19:28:50.942Z,13.50
2022-12-22T19:31:38.379Z,9.80
2022-12-22T19:34:25.419Z,8.20
2022-12-22T19:37:12.385Z,6.87
2022-12-22T19:39:59.290Z,8.53
2022-12-22T19:42:48.920Z,6.47
2022-12-22T19:45:36.102Z,14.97
2022-12-22T19:48:25.760Z,11.60
2022-12-22T19:51:17.483Z,10.00
2022-12-22T19:54:04.744Z,9.00
2022-12-22T19:56:54.554Z,14.20
2022-12-22T19:59:45.443Z,11.53
2022-12-22T20:02:33.372Z,5.83
2022-12-22T20:05:23.380Z,5.03
2022-12-22T20:08:10.439Z,2.87
2022-12-22T20:10:58.990Z,3.77
2022-12-22T20:13:47.055Z,3.03
2022-12-22T20:16:34.095Z,5.33
2022-12-22T20:19:21.132Z,2.40
2022-12-22T20:22:13.801Z,3.60
2022-12-22T20:25:00.835Z,4.23
2022-12-22T20:27:48.934Z,3.10
2022-12-22T20:30:35.837Z,2.67
2022-12-22T20:33:24.727Z,3.57
2022-12-22T20:36:24.562Z,1.70
2022-12-22T20:39:16.334Z,4.10
2022-12-22T20:42:03.372Z,3.23
2022-12-22T20:45:01.541Z,1.50
2022-12-22T20:47:51.641Z,2.33
2022-12-22T20:50:38.632Z,2.37
2022-12-22T20:53:25.659Z,1.83
2022-12-22T20:56:26.844Z,2.47
2022-12-22T20:59:20.214Z,1.13
2022-12-22T21:02:21.908Z,2.37
2022-12-22T21:05:09.043Z,3.57
2022-12-22T21:07:55.982Z,2.07
2022-12-22T21:10:44.595Z,3.00
2022-12-22T21:13:31.668Z,3.10
2022-12-22T21:16:23.843Z,3.40
2022-12-22T21:19:18.371Z,3.20
2022-12-22T21:22:05.422Z,2.73
2022-12-22T21:24:52.339Z,4.17
2022-12-22T21:27:42.334Z,2.10
2022-12-22T21:30:29.544Z,4.03
2022-12-22T21:33:16.531Z,2.43
2022-12-22T21:36:04.395Z,3.30
2022-12-22T21:38:54.917Z,2.93
2022-12-22T21:42:00.173Z,1.93
2022-12-22T21:44:47.174Z,3.23
2022-12-22T21:47:34.124Z,4.07
2022-12-22T21:50:24.153Z,2.27
2022-12-22T21:53:18.061Z,3.63
2022-12-22T21:56:18.987Z,3.13
2022-12-22T21:59:05.899Z,3.87
2022-12-22T22:01:53.412Z,1.37
2022-12-22T22:04:40.545Z,2.17
2022-12-22T22:07:27.444Z,2.03
2022-12-22T22:10:17.255Z,1.90
2022-12-22T22:13:04.660Z,1.90
2022-12-22T22:15:51.675Z,4.33
2022-12-22T22:18:40.007Z,1.50
2022-12-22T22:21:27.078Z,5.93
2022-12-22T22:24:14.045Z,1.47
2022-12-22T22:27:01.133Z,1.87
2022-12-22T22:29:48.112Z,1.40
2022-12-22T22:32:35.040Z,2.57
2022-12-22T22:35:23.768Z,3.37
2022-12-22T22:38:12.506Z,3.60
2022-12-22T22:40:59.474Z,3.83
2022-12-22T22:43:46.418Z,4.13
2022-12-22T22:46:33.676Z,2.87
2022-12-22T22:49:26.183Z,3.37
2022-12-22T22:52:15.689Z,4.40
2022-12-22T22:55:02.683Z,2.57
2022-12-22T22:57:49.795Z,2.23
2022-12-22T23:00:37.589Z,1.60
2022-12-22T23:03:24.785Z,2.23
2022-12-22T23:06:13.450Z,2.17
2022-12-22T23:09:00.820Z,4.10
2022-12-22T23:11:47.768Z,3.00
2022-12-22T23:14:34.690Z,2.53
2022-12-22T23:17:21.661Z,1.43
2022-12-22T23:20:08.919Z,2.87
2022-12-22T23:22:55.906Z,2.73
2022-12-22T23:25:43.978Z,2.97
2022-12-22T23:28:30.885Z,2.40
2022-12-22T23:31:18.460Z,2.60
2022-12-22T23:34:05.521Z,2.20
2022-12-22T23:36:52.454Z,2.53
2022-12-22T23:39:39.361Z,3.37
2022-12-22T23:42:26.294Z,1.90
2022-12-22T23:45:13.335Z,3.77
2022-12-22T23:48:00.268Z,2.47
2022-12-22T23:50:47.911Z,1.53
2022-12-22T23:53:35.501Z,1.67
2022-12-22T23:56:22.793Z,3.83
2022-12-22T23:59:09.726Z,4.27
